sensor_id;sensor_type;location;lat;lon;timestamp;P1;durP1;ratioP1;P2;durP2;ratioP2
23561;SDS011;11959;49.418;8.728;2023-06-19T00:01:19;8.13;;;7.10;;
23561;SDS011;11959;49.418;8.728;2023-06-19T00:03:44;8.57;;;7.68;;
23561;SDS011;11959;49.418;8.728;2023-06-19T00:06:10;7.63;;;6.82;;
23561;SDS011;11959;49.418;8.728;2023-06-19T00:08:37;10.85;;;7.22;;
23561;SDS011;11959;49.418;8.728;2023-06-19T00:11:06;7.93;;;7.13;;
23561;SDS011;11959;49.418;8.728;2023-06-19T00:13:32;9.43;;;7.05;;
23561;SDS011;11959;49.418;8.728;2023-06-19T00:15:59;7.95;;;6.55;;
23561;SDS011;11959;49.418;8.728;2023-06-19T00:18:25;8.20;;;7.05;;
23561;SDS011;11959;49.418;8.728;2023-06-19T00:20:54;8.32;;;7.10;;
23561;SDS011;11959;49.418;8.728;2023-06-19T00:23:21;7.65;;;6.85;;
23561;SDS011;11959;49.418;8.728;2023-06-19T00:25:47;7.88;;;7.07;;
23561;SDS011;11959;49.418;8.728;2023-06-19T00:28:13;8.23;;;6.68;;
23561;SDS011;11959;49.418;8.728;2023-06-19T00:30:40;7.47;;;6.72;;
23561;SDS011;11959;49.418;8.728;2023-06-19T00:33:06;7.50;;;6.70;;
23561;SDS011;11959;49.418;8.728;2023-06-19T00:35:32;8.32;;;7.05;;
23561;SDS011;11959;49.418;8.728;2023-06-19T00:37:58;9.00;;;6.90;;
23561;SDS011;11959;49.418;8.728;2023-06-19T00:40:28;8.95;;;7.53;;
23561;SDS011;11959;49.418;8.728;2023-06-19T00:42:55;7.45;;;6.68;;
23561;SDS011;11959;49.418;8.728;2023-06-19T00:45:21;7.00;;;6.30;;
23561;SDS011;11959;49.418;8.728;2023-06-19T00:47:46;7.53;;;6.82;;
23561;SDS011;11959;49.418;8.728;2023-06-19T00:50:12;7.45;;;6.75;;
23561;SDS011;11959;49.418;8.728;2023-06-19T00:52:38;8.40;;;7.60;;
23561;SDS011;11959;49.418;8.728;2023-06-19T00:55:05;8.82;;;7.18;;
23561;SDS011;11959;49.418;8.728;2023-06-19T00:57:32;7.97;;;7.18;;
23561;SDS011;11959;49.418;8.728;2023-06-19T00:59:58;7.47;;;6.78;;
23561;SDS011;11959;49.418;8.728;2023-06-19T01:02:24;10.10;;;7.00;;
23561;SDS011;11959;49.418;8.728;2023-06-19T01:04:51;8.50;;;6.88;;
23561;SDS011;11959;49.418;8.728;2023-06-19T01:07:20;8.50;;;7.25;;
23561;SDS011;11959;49.418;8.728;2023-06-19T01:10:06;8.02;;;7.22;;
23561;SDS011;11959;49.418;8.728;2023-06-19T01:12:38;7.57;;;6.78;;
23561;SDS011;11959;49.418;8.728;2023-06-19T01:15:13;10.35;;;7.75;;
23561;SDS011;11959;49.418;8.728;2023-06-19T01:17:39;10.73;;;7.28;;
23561;SDS011;11959;49.418;8.728;2023-06-19T01:20:05;9.40;;;7.35;;
23561;SDS011;11959;49.418;8.728;2023-06-19T01:22:35;8.45;;;7.38;;
23561;SDS011;11959;49.418;8.728;2023-06-19T01:25:02;7.97;;;7.18;;
23561;SDS011;11959;49.418;8.728;2023-06-19T01:27:29;8.77;;;7.88;;
23561;SDS011;11959;49.418;8.728;2023-06-19T01:29:59;8.32;;;7.47;;
23561;SDS011;11959;49.418;8.728;2023-06-19T01:32:50;8.10;;;7.30;;
23561;SDS011;11959;49.418;8.728;2023-06-19T01:35:16;8.23;;;7.38;;
23561;SDS011;11959;49.418;8.728;2023-06-19T01:37:46;8.65;;;7.63;;
23561;SDS011;11959;49.418;8.728;2023-06-19T01:40:14;8.25;;;7.05;;
23561;SDS011;11959;49.418;8.728;2023-06-19T01:42:41;8.77;;;7.82;;
23561;SDS011;11959;49.418;8.728;2023-06-19T01:45:08;9.05;;;7.93;;
23561;SDS011;11959;49.418;8.728;2023-06-19T01:47:34;8.40;;;7.55;;
23561;SDS011;11959;49.418;8.728;2023-06-19T01:50:00;9.93;;;8.13;;
23561;SDS011;11959;49.418;8.728;2023-06-19T01:52:25;9.52;;;8.60;;
23561;SDS011;11959;49.418;8.728;2023-06-19T01:54:51;9.50;;;8.60;;
23561;SDS011;11959;49.418;8.728;2023-06-19T01:57:17;10.80;;;8.15;;
23561;SDS011;11959;49.418;8.728;2023-06-19T01:59:43;9.50;;;8.10;;
23561;SDS011;11959;49.418;8.728;2023-06-19T02:02:09;9.10;;;8.20;;
23561;SDS011;11959;49.418;8.728;2023-06-19T02:04:35;9.40;;;8.40;;
23561;SDS011;11959;49.418;8.728;2023-06-19T02:07:01;10.98;;;9.07;;
23561;SDS011;11959;49.418;8.728;2023-06-19T02:09:27;10.40;;;8.10;;
23561;SDS011;11959;49.418;8.728;2023-06-19T02:11:52;9.82;;;8.32;;
23561;SDS011;11959;49.418;8.728;2023-06-19T02:14:18;9.48;;;8.30;;
23561;SDS011;11959;49.418;8.728;2023-06-19T02:16:44;9.48;;;7.90;;
23561;SDS011;11959;49.418;8.728;2023-06-19T02:19:10;9.30;;;7.47;;
23561;SDS011;11959;49.418;8.728;2023-06-19T02:21:36;8.52;;;7.57;;
23561;SDS011;11959;49.418;8.728;2023-06-19T02:24:01;11.38;;;7.25;;
23561;SDS011;11959;49.418;8.728;2023-06-19T02:26:27;7.95;;;7.25;;
23561;SDS011;11959;49.418;8.728;2023-06-19T02:28:54;8.13;;;6.90;;
23561;SDS011;11959;49.418;8.728;2023-06-19T02:31:21;7.63;;;6.82;;
23561;SDS011;11959;49.418;8.728;2023-06-19T02:33:47;8.38;;;6.55;;
23561;SDS011;11959;49.418;8.728;2023-06-19T02:36:13;9.95;;;6.85;;
23561;SDS011;11959;49.418;8.728;2023-06-19T02:38:43;7.47;;;6.32;;
23561;SDS011;11959;49.418;8.728;2023-06-19T02:41:09;7.32;;;6.68;;
23561;SDS011;11959;49.418;8.728;2023-06-19T02:43:34;7.00;;;6.30;;
23561;SDS011;11959;49.418;8.728;2023-06-19T02:46:00;7.18;;;5.75;;
23561;SDS011;11959;49.418;8.728;2023-06-19T02:48:27;9.38;;;6.25;;
23561;SDS011;11959;49.418;8.728;2023-06-19T02:50:53;7.10;;;6.10;;
23561;SDS011;11959;49.418;8.728;2023-06-19T02:53:18;6.60;;;5.97;;
23561;SDS011;11959;49.418;8.728;2023-06-19T02:55:44;6.75;;;6.05;;
23561;SDS011;11959;49.418;8.728;2023-06-19T02:58:10;7.32;;;6.10;;
23561;SDS011;11959;49.418;8.728;2023-06-19T03:00:35;7.68;;;6.88;;
23561;SDS011;11959;49.418;8.728;2023-06-19T03:03:01;7.43;;;6.43;;
23561;SDS011;11959;49.418;8.728;2023-06-19T03:05:26;8.80;;;6.13;;
23561;SDS011;11959;49.418;8.728;2023-06-19T03:07:52;7.25;;;6.50;;
23561;SDS011;11959;49.418;8.728;2023-06-19T03:10:18;7.38;;;6.15;;
23561;SDS011;11959;49.418;8.728;2023-06-19T03:12:43;6.85;;;6.15;;
23561;SDS011;11959;49.418;8.728;2023-06-19T03:15:09;5.65;;;4.75;;
23561;SDS011;11959;49.418;8.728;2023-06-19T03:17:35;6.65;;;4.30;;
23561;SDS011;11959;49.418;8.728;2023-06-19T03:20:01;4.85;;;3.95;;
23561;SDS011;11959;49.418;8.728;2023-06-19T03:22:26;7.13;;;3.90;;
23561;SDS011;11959;49.418;8.728;2023-06-19T03:24:52;5.18;;;4.20;;
23561;SDS011;11959;49.418;8.728;2023-06-19T03:27:18;4.88;;;3.42;;
23561;SDS011;11959;49.418;8.728;2023-06-19T03:29:43;4.63;;;3.22;;
23561;SDS011;11959;49.418;8.728;2023-06-19T03:32:09;4.03;;;3.38;;
23561;SDS011;11959;49.418;8.728;2023-06-19T03:34:34;3.85;;;3.30;;
23561;SDS011;11959;49.418;8.728;2023-06-19T03:37:00;4.68;;;3.55;;
23561;SDS011;11959;49.418;8.728;2023-06-19T03:39:26;4.93;;;3.38;;
23561;SDS011;11959;49.418;8.728;2023-06-19T03:41:51;3.92;;;3.05;;
23561;SDS011;11959;49.418;8.728;2023-06-19T03:44:17;4.65;;;3.05;;
23561;SDS011;11959;49.418;8.728;2023-06-19T03:46:42;4.15;;;3.00;;
23561;SDS011;11959;49.418;8.728;2023-06-19T03:49:08;3.47;;;3.03;;
23561;SDS011;11959;49.418;8.728;2023-06-19T03:51:34;4.88;;;2.88;;
23561;SDS011;11959;49.418;8.728;2023-06-19T03:54:00;3.85;;;2.95;;
23561;SDS011;11959;49.418;8.728;2023-06-19T03:56:26;3.58;;;2.80;;
23561;SDS011;11959;49.418;8.728;2023-06-19T03:58:51;3.38;;;3.08;;
23561;SDS011;11959;49.418;8.728;2023-06-19T04:01:17;3.70;;;2.90;;
23561;SDS011;11959;49.418;8.728;2023-06-19T04:03:43;4.30;;;3.20;;
23561;SDS011;11959;49.418;8.728;2023-06-19T04:06:08;4.82;;;3.45;;
23561;SDS011;11959;49.418;8.728;2023-06-19T04:08:34;4.38;;;3.10;;
23561;SDS011;11959;49.418;8.728;2023-06-19T04:11:00;3.70;;;3.22;;
23561;SDS011;11959;49.418;8.728;2023-06-19T04:13:25;4.82;;;3.20;;
23561;SDS011;11959;49.418;8.728;2023-06-19T04:15:52;4.60;;;3.45;;
23561;SDS011;11959;49.418;8.728;2023-06-19T04:18:17;4.32;;;3.38;;
23561;SDS011;11959;49.418;8.728;2023-06-19T04:20:43;3.97;;;3.17;;
23561;SDS011;11959;49.418;8.728;2023-06-19T04:23:09;4.32;;;3.45;;
23561;SDS011;11959;49.418;8.728;2023-06-19T04:25:34;3.90;;;3.45;;
23561;SDS011;11959;49.418;8.728;2023-06-19T04:28:02;4.60;;;3.22;;
23561;SDS011;11959;49.418;8.728;2023-06-19T04:30:28;8.45;;;3.58;;
23561;SDS011;11959;49.418;8.728;2023-06-19T04:32:55;4.53;;;3.47;;
23561;SDS011;11959;49.418;8.728;2023-06-19T04:35:22;3.75;;;3.30;;
23561;SDS011;11959;49.418;8.728;2023-06-19T04:37:48;3.50;;;3.15;;
23561;SDS011;11959;49.418;8.728;2023-06-19T04:40:14;3.90;;;3.05;;
23561;SDS011;11959;49.418;8.728;2023-06-19T04:42:40;4.07;;;3.22;;
23561;SDS011;11959;49.418;8.728;2023-06-19T04:45:06;3.92;;;3.08;;
23561;SDS011;11959;49.418;8.728;2023-06-19T04:47:32;4.38;;;3.03;;
23561;SDS011;11959;49.418;8.728;2023-06-19T04:49:59;4.15;;;3.05;;
23561;SDS011;11959;49.418;8.728;2023-06-19T04:52:25;5.78;;;3.45;;
23561;SDS011;11959;49.418;8.728;2023-06-19T04:54:51;3.30;;;2.60;;
23561;SDS011;11959;49.418;8.728;2023-06-19T04:57:16;3.70;;;2.97;;
23561;SDS011;11959;49.418;8.728;2023-06-19T04:59:43;3.97;;;3.17;;
23561;SDS011;11959;49.418;8.728;2023-06-19T05:02:11;4.60;;;3.08;;
23561;SDS011;11959;49.418;8.728;2023-06-19T05:04:37;3.45;;;2.95;;
23561;SDS011;11959;49.418;8.728;2023-06-19T05:07:03;4.50;;;3.63;;
23561;SDS011;11959;49.418;8.728;2023-06-19T05:09:29;4.07;;;3.03;;
23561;SDS011;11959;49.418;8.728;2023-06-19T05:11:55;4.28;;;3.25;;
23561;SDS011;11959;49.418;8.728;2023-06-19T05:14:21;7.88;;;3.22;;
23561;SDS011;11959;49.418;8.728;2023-06-19T05:16:47;4.82;;;3.53;;
23561;SDS011;11959;49.418;8.728;2023-06-19T05:19:13;3.78;;;3.38;;
23561;SDS011;11959;49.418;8.728;2023-06-19T05:21:38;5.68;;;3.97;;
23561;SDS011;11959;49.418;8.728;2023-06-19T05:24:04;4.18;;;3.47;;
23561;SDS011;11959;49.418;8.728;2023-06-19T05:26:30;4.32;;;3.55;;
23561;SDS011;11959;49.418;8.728;2023-06-19T05:28:55;5.22;;;3.72;;
23561;SDS011;11959;49.418;8.728;2023-06-19T05:31:21;5.40;;;3.70;;
23561;SDS011;11959;49.418;8.728;2023-06-19T05:33:47;3.92;;;3.53;;
23561;SDS011;11959;49.418;8.728;2023-06-19T05:36:12;5.68;;;3.70;;
23561;SDS011;11959;49.418;8.728;2023-06-19T05:38:38;4.68;;;3.60;;
23561;SDS011;11959;49.418;8.728;2023-06-19T05:41:04;6.72;;;3.65;;
23561;SDS011;11959;49.418;8.728;2023-06-19T05:43:29;4.90;;;3.60;;
23561;SDS011;11959;49.418;8.728;2023-06-19T05:45:56;5.28;;;3.63;;
23561;SDS011;11959;49.418;8.728;2023-06-19T05:48:24;4.93;;;3.72;;
23561;SDS011;11959;49.418;8.728;2023-06-19T05:50:50;4.57;;;3.35;;
23561;SDS011;11959;49.418;8.728;2023-06-19T05:53:16;5.18;;;3.47;;
23561;SDS011;11959;49.418;8.728;2023-06-19T05:55:42;5.13;;;3.97;;
23561;SDS011;11959;49.418;8.728;2023-06-19T05:58:08;5.63;;;3.58;;
23561;SDS011;11959;49.418;8.728;2023-06-19T06:00:34;4.47;;;3.70;;
23561;SDS011;11959;49.418;8.728;2023-06-19T06:03:00;4.55;;;3.35;;
23561;SDS011;11959;49.418;8.728;2023-06-19T06:05:26;4.70;;;3.63;;
23561;SDS011;11959;49.418;8.728;2023-06-19T06:07:53;3.90;;;3.50;;
23561;SDS011;11959;49.418;8.728;2023-06-19T06:10:23;4.45;;;3.53;;
23561;SDS011;11959;49.418;8.728;2023-06-19T06:12:50;3.80;;;3.40;;
23561;SDS011;11959;49.418;8.728;2023-06-19T06:15:16;6.75;;;3.85;;
23561;SDS011;11959;49.418;8.728;2023-06-19T06:17:42;6.13;;;4.13;;
23561;SDS011;11959;49.418;8.728;2023-06-19T06:20:08;4.85;;;3.83;;
23561;SDS011;11959;49.418;8.728;2023-06-19T06:22:40;4.57;;;3.95;;
23561;SDS011;11959;49.418;8.728;2023-06-19T06:25:07;5.43;;;3.72;;
23561;SDS011;11959;49.418;8.728;2023-06-19T06:27:33;6.15;;;4.45;;
23561;SDS011;11959;49.418;8.728;2023-06-19T06:29:59;4.30;;;3.85;;
23561;SDS011;11959;49.418;8.728;2023-06-19T06:32:25;4.55;;;3.85;;
23561;SDS011;11959;49.418;8.728;2023-06-19T06:34:52;6.80;;;4.55;;
23561;SDS011;11959;49.418;8.728;2023-06-19T06:37:18;5.47;;;4.10;;
23561;SDS011;11959;49.418;8.728;2023-06-19T06:39:47;5.18;;;3.85;;
23561;SDS011;11959;49.418;8.728;2023-06-19T06:42:14;5.05;;;4.50;;
23561;SDS011;11959;49.418;8.728;2023-06-19T06:44:40;4.68;;;4.15;;
23561;SDS011;11959;49.418;8.728;2023-06-19T06:47:05;5.07;;;4.22;;
23561;SDS011;11959;49.418;8.728;2023-06-19T06:49:31;6.15;;;4.78;;
23561;SDS011;11959;49.418;8.728;2023-06-19T06:51:56;4.90;;;4.13;;
23561;SDS011;11959;49.418;8.728;2023-06-19T06:54:22;8.63;;;4.80;;
23561;SDS011;11959;49.418;8.728;2023-06-19T06:56:48;6.18;;;4.90;;
23561;SDS011;11959;49.418;8.728;2023-06-19T06:59:13;6.63;;;4.35;;
23561;SDS011;11959;49.418;8.728;2023-06-19T07:01:42;7.57;;;5.20;;
23561;SDS011;11959;49.418;8.728;2023-06-19T07:04:07;6.35;;;4.60;;
23561;SDS011;11959;49.418;8.728;2023-06-19T07:06:33;6.95;;;4.70;;
23561;SDS011;11959;49.418;8.728;2023-06-19T07:08:58;5.35;;;4.85;;
23561;SDS011;11959;49.418;8.728;2023-06-19T07:11:24;7.40;;;5.05;;
23561;SDS011;11959;49.418;8.728;2023-06-19T07:13:50;6.28;;;5.00;;
23561;SDS011;11959;49.418;8.728;2023-06-19T07:16:15;6.25;;;5.18;;
23561;SDS011;11959;49.418;8.728;2023-06-19T07:18:41;6.30;;;5.30;;
23561;SDS011;11959;49.418;8.728;2023-06-19T07:21:09;8.07;;;6.20;;
23561;SDS011;11959;49.418;8.728;2023-06-19T07:23:38;6.85;;;5.20;;
23561;SDS011;11959;49.418;8.728;2023-06-19T07:26:05;7.15;;;5.40;;
23561;SDS011;11959;49.418;8.728;2023-06-19T07:28:31;6.25;;;5.47;;
23561;SDS011;11959;49.418;8.728;2023-06-19T07:30:57;6.38;;;5.15;;
23561;SDS011;11959;49.418;8.728;2023-06-19T07:33:23;6.47;;;5.70;;
23561;SDS011;11959;49.418;8.728;2023-06-19T07:35:48;5.90;;;4.95;;
23561;SDS011;11959;49.418;8.728;2023-06-19T07:38:14;6.75;;;4.85;;
23561;SDS011;11959;49.418;8.728;2023-06-19T07:40:40;6.03;;;5.18;;
23561;SDS011;11959;49.418;8.728;2023-06-19T07:43:06;9.18;;;5.13;;
23561;SDS011;11959;49.418;8.728;2023-06-19T07:45:31;6.72;;;5.70;;
23561;SDS011;11959;49.418;8.728;2023-06-19T07:47:57;6.18;;;5.30;;
23561;SDS011;11959;49.418;8.728;2023-06-19T07:50:23;6.97;;;5.05;;
23561;SDS011;11959;49.418;8.728;2023-06-19T07:52:48;6.80;;;5.13;;
23561;SDS011;11959;49.418;8.728;2023-06-19T07:55:14;5.90;;;5.30;;
23561;SDS011;11959;49.418;8.728;2023-06-19T07:57:40;6.22;;;5.60;;
23561;SDS011;11959;49.418;8.728;2023-06-19T08:00:06;7.07;;;5.90;;
23561;SDS011;11959;49.418;8.728;2023-06-19T08:02:41;7.47;;;5.70;;
23561;SDS011;11959;49.418;8.728;2023-06-19T08:05:07;6.82;;;5.60;;
23561;SDS011;11959;49.418;8.728;2023-06-19T08:07:34;7.15;;;5.38;;
23561;SDS011;11959;49.418;8.728;2023-06-19T08:10:00;6.20;;;5.60;;
23561;SDS011;11959;49.418;8.728;2023-06-19T08:12:26;6.50;;;5.20;;
23561;SDS011;11959;49.418;8.728;2023-06-19T08:14:51;6.82;;;5.60;;
23561;SDS011;11959;49.418;8.728;2023-06-19T08:17:17;7.10;;;5.60;;
23561;SDS011;11959;49.418;8.728;2023-06-19T08:19:43;9.07;;;5.90;;
23561;SDS011;11959;49.418;8.728;2023-06-19T08:22:08;5.75;;;5.15;;
23561;SDS011;11959;49.418;8.728;2023-06-19T08:24:36;6.40;;;5.43;;
23561;SDS011;11959;49.418;8.728;2023-06-19T08:27:04;6.35;;;5.32;;
23561;SDS011;11959;49.418;8.728;2023-06-19T08:29:29;6.60;;;5.82;;
23561;SDS011;11959;49.418;8.728;2023-06-19T08:31:55;6.10;;;5.45;;
23561;SDS011;11959;49.418;8.728;2023-06-19T08:34:21;5.90;;;5.28;;
23561;SDS011;11959;49.418;8.728;2023-06-19T08:36:46;5.78;;;5.25;;
23561;SDS011;11959;49.418;8.728;2023-06-19T08:39:12;6.40;;;5.78;;
23561;SDS011;11959;49.418;8.728;2023-06-19T08:41:38;6.85;;;6.00;;
23561;SDS011;11959;49.418;8.728;2023-06-19T08:44:07;7.65;;;5.78;;
23561;SDS011;11959;49.418;8.728;2023-06-19T08:46:33;6.80;;;5.80;;
23561;SDS011;11959;49.418;8.728;2023-06-19T08:49:00;6.90;;;6.05;;
23561;SDS011;11959;49.418;8.728;2023-06-19T08:51:26;6.60;;;5.90;;
23561;SDS011;11959;49.418;8.728;2023-06-19T08:54:00;6.13;;;5.53;;
23561;SDS011;11959;49.418;8.728;2023-06-19T08:56:28;6.68;;;5.65;;
23561;SDS011;11959;49.418;8.728;2023-06-19T08:59:07;7.28;;;6.30;;
23561;SDS011;11959;49.418;8.728;2023-06-19T09:01:34;6.70;;;5.57;;
23561;SDS011;11959;49.418;8.728;2023-06-19T09:03:59;6.90;;;5.60;;
23561;SDS011;11959;49.418;8.728;2023-06-19T09:06:32;7.85;;;6.55;;
23561;SDS011;11959;49.418;8.728;2023-06-19T09:08:59;6.53;;;5.88;;
23561;SDS011;11959;49.418;8.728;2023-06-19T09:11:25;10.05;;;6.47;;
23561;SDS011;11959;49.418;8.728;2023-06-19T09:13:57;7.43;;;6.07;;
23561;SDS011;11959;49.418;8.728;2023-06-19T09:16:36;9.57;;;6.18;;
23561;SDS011;11959;49.418;8.728;2023-06-19T09:19:05;7.55;;;6.47;;
23561;SDS011;11959;49.418;8.728;2023-06-19T09:21:31;8.23;;;6.32;;
23561;SDS011;11959;49.418;8.728;2023-06-19T09:24:06;7.30;;;6.50;;
23561;SDS011;11959;49.418;8.728;2023-06-19T09:26:33;6.68;;;6.00;;
23561;SDS011;11959;49.418;8.728;2023-06-19T09:29:09;6.65;;;5.95;;
23561;SDS011;11959;49.418;8.728;2023-06-19T09:31:40;7.55;;;6.07;;
23561;SDS011;11959;49.418;8.728;2023-06-19T09:34:07;7.90;;;6.45;;
23561;SDS011;11959;49.418;8.728;2023-06-19T09:36:33;6.55;;;5.95;;
23561;SDS011;11959;49.418;8.728;2023-06-19T09:39:01;7.55;;;6.85;;
23561;SDS011;11959;49.418;8.728;2023-06-19T09:41:28;6.57;;;5.93;;
23561;SDS011;11959;49.418;8.728;2023-06-19T09:43:55;8.05;;;6.35;;
23561;SDS011;11959;49.418;8.728;2023-06-19T09:46:23;7.78;;;5.93;;
23561;SDS011;11959;49.418;8.728;2023-06-19T09:48:53;8.18;;;6.43;;
23561;SDS011;11959;49.418;8.728;2023-06-19T09:51:26;7.88;;;6.60;;
23561;SDS011;11959;49.418;8.728;2023-06-19T09:53:56;8.25;;;6.75;;
23561;SDS011;11959;49.418;8.728;2023-06-19T09:56:23;7.18;;;5.90;;
23561;SDS011;11959;49.418;8.728;2023-06-19T09:58:52;7.35;;;6.65;;
23561;SDS011;11959;49.418;8.728;2023-06-19T10:01:21;7.28;;;6.60;;
23561;SDS011;11959;49.418;8.728;2023-06-19T10:03:48;7.00;;;6.25;;
23561;SDS011;11959;49.418;8.728;2023-06-19T10:06:14;7.80;;;5.85;;
23561;SDS011;11959;49.418;8.728;2023-06-19T10:08:42;7.20;;;6.45;;
23561;SDS011;11959;49.418;8.728;2023-06-19T10:11:12;7.38;;;6.53;;
23561;SDS011;11959;49.418;8.728;2023-06-19T10:13:41;7.60;;;6.78;;
23561;SDS011;11959;49.418;8.728;2023-06-19T10:16:08;6.80;;;6.10;;
23561;SDS011;11959;49.418;8.728;2023-06-19T10:18:48;7.65;;;5.88;;
23561;SDS011;11959;49.418;8.728;2023-06-19T10:21:17;7.10;;;6.10;;
23561;SDS011;11959;49.418;8.728;2023-06-19T10:23:51;8.95;;;6.40;;
23561;SDS011;11959;49.418;8.728;2023-06-19T10:26:29;8.88;;;6.20;;
23561;SDS011;11959;49.418;8.728;2023-06-19T10:28:58;6.82;;;6.20;;
23561;SDS011;11959;49.418;8.728;2023-06-19T10:31:24;6.35;;;5.78;;
23561;SDS011;11959;49.418;8.728;2023-06-19T10:33:50;8.48;;;6.00;;
23561;SDS011;11959;49.418;8.728;2023-06-19T10:36:17;8.77;;;6.50;;
23561;SDS011;11959;49.418;8.728;2023-06-19T10:38:46;6.70;;;6.00;;
23561;SDS011;11959;49.418;8.728;2023-06-19T10:41:25;7.07;;;6.38;;
23561;SDS011;11959;49.418;8.728;2023-06-19T10:43:58;8.02;;;6.40;;
23561;SDS011;11959;49.418;8.728;2023-06-19T10:46:29;6.57;;;5.97;;
23561;SDS011;11959;49.418;8.728;2023-06-19T10:49:04;7.95;;;6.05;;
23561;SDS011;11959;49.418;8.728;2023-06-19T10:51:39;7.72;;;6.75;;
23561;SDS011;11959;49.418;8.728;2023-06-19T10:54:14;6.23;;;5.70;;
23561;SDS011;11959;49.418;8.728;2023-06-19T10:56:40;6.68;;;5.57;;
23561;SDS011;11959;49.418;8.728;2023-06-19T10:59:08;6.78;;;6.00;;
23561;SDS011;11959;49.418;8.728;2023-06-19T11:01:40;7.45;;;5.95;;
23561;SDS011;11959;49.418;8.728;2023-06-19T11:04:08;6.90;;;6.20;;
23561;SDS011;11959;49.418;8.728;2023-06-19T11:06:36;6.93;;;5.40;;
23561;SDS011;11959;49.418;8.728;2023-06-19T11:09:03;6.43;;;5.82;;
23561;SDS011;11959;49.418;8.728;2023-06-19T11:11:37;6.10;;;5.43;;
23561;SDS011;11959;49.418;8.728;2023-06-19T11:14:13;6.45;;;5.40;;
23561;SDS011;11959;49.418;8.728;2023-06-19T11:16:41;6.00;;;5.40;;
23561;SDS011;11959;49.418;8.728;2023-06-19T11:19:13;7.18;;;6.07;;
23561;SDS011;11959;49.418;8.728;2023-06-19T11:21:45;8.77;;;5.80;;
23561;SDS011;11959;49.418;8.728;2023-06-19T11:24:12;7.47;;;5.60;;
23561;SDS011;11959;49.418;8.728;2023-06-19T11:26:43;6.72;;;6.03;;
23561;SDS011;11959;49.418;8.728;2023-06-19T11:29:21;7.13;;;5.30;;
23561;SDS011;11959;49.418;8.728;2023-06-19T11:31:48;5.40;;;4.90;;
23561;SDS011;11959;49.418;8.728;2023-06-19T11:34:15;5.90;;;5.30;;
23561;SDS011;11959;49.418;8.728;2023-06-19T11:36:42;5.20;;;4.70;;
23561;SDS011;11959;49.418;8.728;2023-06-19T11:39:15;5.85;;;5.30;;
23561;SDS011;11959;49.418;8.728;2023-06-19T11:41:43;5.18;;;4.70;;
23561;SDS011;11959;49.418;8.728;2023-06-19T11:44:09;5.78;;;5.18;;
23561;SDS011;11959;49.418;8.728;2023-06-19T11:46:35;5.78;;;5.18;;
23561;SDS011;11959;49.418;8.728;2023-06-19T11:49:11;6.22;;;4.78;;
23561;SDS011;11959;49.418;8.728;2023-06-19T11:51:44;5.30;;;4.88;;
23561;SDS011;11959;49.418;8.728;2023-06-19T11:54:10;5.55;;;5.05;;
23561;SDS011;11959;49.418;8.728;2023-06-19T11:56:39;6.40;;;5.35;;
23561;SDS011;11959;49.418;8.728;2023-06-19T11:59:05;5.30;;;4.80;;
23561;SDS011;11959;49.418;8.728;2023-06-19T12:01:31;5.90;;;5.03;;
23561;SDS011;11959;49.418;8.728;2023-06-19T12:03:58;5.13;;;4.70;;
23561;SDS011;11959;49.418;8.728;2023-06-19T12:06:24;5.32;;;4.80;;
23561;SDS011;11959;49.418;8.728;2023-06-19T12:08:50;5.00;;;4.50;;
23561;SDS011;11959;49.418;8.728;2023-06-19T12:11:15;5.53;;;4.78;;
23561;SDS011;11959;49.418;8.728;2023-06-19T12:13:41;5.40;;;4.30;;
23561;SDS011;11959;49.418;8.728;2023-06-19T12:16:07;5.57;;;4.57;;
23561;SDS011;11959;49.418;8.728;2023-06-19T12:18:35;5.70;;;4.55;;
23561;SDS011;11959;49.418;8.728;2023-06-19T12:21:01;4.50;;;3.97;;
23561;SDS011;11959;49.418;8.728;2023-06-19T12:23:27;4.53;;;4.05;;
23561;SDS011;11959;49.418;8.728;2023-06-19T12:25:53;6.65;;;4.20;;
23561;SDS011;11959;49.418;8.728;2023-06-19T12:28:19;5.65;;;4.28;;
23561;SDS011;11959;49.418;8.728;2023-06-19T12:30:45;4.57;;;4.10;;
23561;SDS011;11959;49.418;8.728;2023-06-19T12:33:11;5.43;;;4.40;;
23561;SDS011;11959;49.418;8.728;2023-06-19T12:35:40;5.55;;;4.63;;
23561;SDS011;11959;49.418;8.728;2023-06-19T12:38:06;5.25;;;4.63;;
23561;SDS011;11959;49.418;8.728;2023-06-19T12:40:32;5.07;;;4.57;;
23561;SDS011;11959;49.418;8.728;2023-06-19T12:42:58;4.90;;;4.50;;
23561;SDS011;11959;49.418;8.728;2023-06-19T12:45:24;4.65;;;4.25;;
23561;SDS011;11959;49.418;8.728;2023-06-19T12:47:50;5.10;;;4.68;;
23561;SDS011;11959;49.418;8.728;2023-06-19T12:50:15;5.05;;;4.55;;
23561;SDS011;11959;49.418;8.728;2023-06-19T12:52:41;5.05;;;4.32;;
23561;SDS011;11959;49.418;8.728;2023-06-19T12:55:07;4.68;;;4.13;;
23561;SDS011;11959;49.418;8.728;2023-06-19T12:57:33;4.57;;;4.18;;
23561;SDS011;11959;49.418;8.728;2023-06-19T12:59:58;5.03;;;4.22;;
23561;SDS011;11959;49.418;8.728;2023-06-19T13:02:24;5.32;;;4.53;;
23561;SDS011;11959;49.418;8.728;2023-06-19T13:04:50;5.13;;;4.60;;
23561;SDS011;11959;49.418;8.728;2023-06-19T13:07:15;5.60;;;4.68;;
23561;SDS011;11959;49.418;8.728;2023-06-19T13:09:41;5.10;;;4.60;;
23561;SDS011;11959;49.418;8.728;2023-06-19T13:12:07;4.47;;;4.07;;
23561;SDS011;11959;49.418;8.728;2023-06-19T13:14:34;5.43;;;4.30;;
23561;SDS011;11959;49.418;8.728;2023-06-19T13:16:59;5.97;;;4.78;;
23561;SDS011;11959;49.418;8.728;2023-06-19T13:19:25;5.43;;;4.75;;
23561;SDS011;11959;49.418;8.728;2023-06-19T13:21:51;6.15;;;4.50;;
23561;SDS011;11959;49.418;8.728;2023-06-19T13:24:17;5.00;;;4.53;;
23561;SDS011;11959;49.418;8.728;2023-06-19T13:26:43;6.80;;;4.50;;
23561;SDS011;11959;49.418;8.728;2023-06-19T13:29:11;5.10;;;4.60;;
23561;SDS011;11959;49.418;8.728;2023-06-19T13:31:37;5.72;;;5.10;;
23561;SDS011;11959;49.418;8.728;2023-06-19T13:34:03;5.18;;;4.57;;
23561;SDS011;11959;49.418;8.728;2023-06-19T13:36:29;5.10;;;4.60;;
23561;SDS011;11959;49.418;8.728;2023-06-19T13:38:55;4.90;;;4.40;;
23561;SDS011;11959;49.418;8.728;2023-06-19T13:41:21;4.80;;;4.30;;
23561;SDS011;11959;49.418;8.728;2023-06-19T13:43:49;5.88;;;5.05;;
23561;SDS011;11959;49.418;8.728;2023-06-19T13:46:15;5.53;;;5.03;;
23561;SDS011;11959;49.418;8.728;2023-06-19T13:48:41;6.50;;;5.03;;
23561;SDS011;11959;49.418;8.728;2023-06-19T13:51:07;5.63;;;4.65;;
23561;SDS011;11959;49.418;8.728;2023-06-19T13:53:33;6.07;;;5.47;;
23561;SDS011;11959;49.418;8.728;2023-06-19T13:55:58;5.97;;;5.30;;
23561;SDS011;11959;49.418;8.728;2023-06-19T13:58:24;6.72;;;4.97;;
23561;SDS011;11959;49.418;8.728;2023-06-19T14:00:50;5.28;;;4.78;;
23561;SDS011;11959;49.418;8.728;2023-06-19T14:03:16;5.25;;;4.30;;
23561;SDS011;11959;49.418;8.728;2023-06-19T14:05:41;7.40;;;4.68;;
23561;SDS011;11959;49.418;8.728;2023-06-19T14:08:08;6.03;;;5.40;;
23561;SDS011;11959;49.418;8.728;2023-06-19T14:10:34;6.50;;;4.75;;
23561;SDS011;11959;49.418;8.728;2023-06-19T14:13:00;5.40;;;4.90;;
23561;SDS011;11959;49.418;8.728;2023-06-19T14:15:26;5.72;;;5.00;;
23561;SDS011;11959;49.418;8.728;2023-06-19T14:17:51;5.30;;;4.80;;
23561;SDS011;11959;49.418;8.728;2023-06-19T14:20:17;4.95;;;4.30;;
23561;SDS011;11959;49.418;8.728;2023-06-19T14:22:42;5.50;;;5.00;;
23561;SDS011;11959;49.418;8.728;2023-06-19T14:25:08;5.18;;;4.68;;
23561;SDS011;11959;49.418;8.728;2023-06-19T14:27:34;5.25;;;4.75;;
23561;SDS011;11959;49.418;8.728;2023-06-19T14:29:59;5.22;;;4.68;;
23561;SDS011;11959;49.418;8.728;2023-06-19T14:32:25;5.40;;;4.85;;
23561;SDS011;11959;49.418;8.728;2023-06-19T14:34:51;6.63;;;5.10;;
23561;SDS011;11959;49.418;8.728;2023-06-19T14:37:16;4.90;;;4.40;;
23561;SDS011;11959;49.418;8.728;2023-06-19T14:39:42;6.07;;;4.97;;
23561;SDS011;11959;49.418;8.728;2023-06-19T14:42:08;8.35;;;5.45;;
23561;SDS011;11959;49.418;8.728;2023-06-19T14:44:35;5.60;;;5.10;;
23561;SDS011;11959;49.418;8.728;2023-06-19T14:47:01;5.47;;;4.97;;